createdAt,value
2023-04-03T00:00:30.557Z,17.77
2023-04-03T00:01:30.632Z,17.77
2023-04-03T00:02:30.827Z,17.77
2023-04-03T00:03:30.846Z,17.77
2023-04-03T00:04:31.090Z,17.77
2023-04-03T00:05:31.048Z,17.77
2023-04-03T00:06:31.167Z,17.76
2023-04-03T00:07:31.280Z,17.76
2023-04-03T00:08:31.382Z,17.76
2023-04-03T00:09:31.468Z,17.76
2023-04-03T00:10:31.583Z,17.76
2023-04-03T00:11:31.768Z,17.75
2023-04-03T00:12:31.887Z,17.76
2023-04-03T00:13:31.916Z,17.76
2023-04-03T00:14:31.998Z,17.76
2023-04-03T00:15:32.112Z,17.76
2023-04-03T00:16:32.245Z,17.76
2023-04-03T00:17:32.356Z,17.77
2023-04-03T00:18:32.420Z,17.77
2023-04-03T00:19:32.514Z,17.77
2023-04-03T00:20:33.401Z,17.78
2023-04-03T00:21:32.716Z,17.77
2023-04-03T00:22:32.835Z,17.77
2023-04-03T00:23:32.969Z,17.77
2023-04-03T00:24:33.025Z,17.77
2023-04-03T00:25:33.132Z,17.77
2023-04-03T00:26:33.239Z,17.78
2023-04-03T00:27:33.344Z,17.78
2023-04-03T00:28:33.451Z,17.78
2023-04-03T00:29:33.557Z,17.78
2023-04-03T00:30:33.687Z,17.78
2023-04-03T00:31:33.775Z,17.78
2023-04-03T00:32:33.863Z,17.79
2023-04-03T00:33:33.980Z,17.78
2023-04-03T00:34:34.055Z,17.79
2023-04-03T00:35:34.171Z,17.79
2023-04-03T00:36:34.381Z,17.80
2023-04-03T00:37:34.353Z,17.80
2023-04-03T00:38:34.441Z,17.80
2023-04-03T00:39:34.546Z,17.81
2023-04-03T00:40:34.789Z,17.80
2023-04-03T00:41:34.739Z,17.81
2023-04-03T00:42:34.842Z,17.81
2023-04-03T00:43:34.941Z,17.82
2023-04-03T00:44:35.021Z,17.82
2023-04-03T00:45:35.117Z,17.82
2023-04-03T00:46:35.240Z,17.82
2023-04-03T00:47:35.302Z,17.82
2023-04-03T00:48:35.393Z,17.83
2023-04-03T00:49:35.473Z,17.82
2023-04-03T00:50:35.717Z,17.82
2023-04-03T00:51:35.659Z,17.82
2023-04-03T00:52:35.738Z,17.82
2023-04-03T00:53:35.823Z,17.83
2023-04-03T00:54:35.908Z,17.83
2023-04-03T00:55:36.080Z,17.83
2023-04-03T00:56:36.137Z,17.83
2023-04-03T00:57:36.255Z,17.83
2023-04-03T00:58:36.270Z,17.83
2023-04-03T00:59:36.345Z,17.83
2023-04-03T01:00:36.645Z,17.83
2023-04-03T01:01:36.529Z,17.82
2023-04-03T01:02:36.628Z,17.82
2023-04-03T01:03:36.671Z,17.82
2023-04-03T01:04:36.799Z,17.83
2023-04-03T01:05:36.813Z,17.83
2023-04-03T01:06:36.894Z,17.82
2023-04-03T01:07:36.973Z,17.82
2023-04-03T01:08:37.049Z,17.82
2023-04-03T01:09:37.115Z,17.82
2023-04-03T01:10:37.452Z,17.82
2023-04-03T01:11:37.885Z,17.82
2023-04-03T01:12:37.342Z,17.82
2023-04-03T01:13:37.440Z,17.82
2023-04-03T01:14:37.506Z,17.82
2023-04-03T01:15:37.622Z,17.81
2023-04-03T01:16:37.752Z,17.82
2023-04-03T01:17:37.753Z,17.81
2023-04-03T01:18:38.395Z,17.82
2023-04-03T01:19:37.877Z,17.82
2023-04-03T01:20:38.509Z,17.83
2023-04-03T01:21:38.033Z,17.83
2023-04-03T01:22:38.119Z,17.83
2023-04-03T01:23:38.185Z,17.83
2023-04-03T01:24:38.246Z,17.83
2023-04-03T01:25:38.322Z,17.83
2023-04-03T01:26:38.400Z,17.84
2023-04-03T01:27:38.475Z,17.84
2023-04-03T01:28:38.543Z,17.83
2023-04-03T01:29:38.623Z,17.83
2023-04-03T01:30:38.827Z,17.84
2023-04-03T01:31:38.839Z,17.83
2023-04-03T01:32:38.926Z,17.83
2023-04-03T01:33:38.902Z,17.84
2023-04-03T01:34:38.980Z,17.84
2023-04-03T01:35:39.066Z,17.84
2023-04-03T01:36:39.103Z,17.85
2023-04-03T01:37:39.166Z,17.85
2023-04-03T01:38:39.225Z,17.84
2023-04-03T01:39:39.303Z,17.85
2023-04-03T01:40:39.362Z,17.84
2023-04-03T01:41:39.442Z,17.84
2023-04-03T01:42:39.526Z,17.84
2023-04-03T01:43:39.590Z,17.85
2023-04-03T01:44:39.712Z,17.84
2023-04-03T01:45:39.748Z,17.84
2023-04-03T01:46:39.810Z,17.84
2023-04-03T01:47:39.958Z,17.84
2023-04-03T01:48:39.947Z,17.84
2023-04-03T01:49:39.999Z,17.84
2023-04-03T01:50:40.072Z,17.85
2023-04-03T01:51:40.158Z,17.84
2023-04-03T01:52:40.207Z,17.85
2023-04-03T01:53:40.280Z,17.86
2023-04-03T01:54:40.340Z,17.85
2023-04-03T01:55:40.414Z,17.85
2023-04-03T01:56:40.480Z,17.86
2023-04-03T01:57:41.402Z,17.85
2023-04-03T01:58:40.617Z,17.86
2023-04-03T01:59:40.683Z,17.86
2023-04-03T02:00:40.769Z,17.85
2023-04-03T02:01:40.856Z,17.86
2023-04-03T02:02:40.926Z,17.85
2023-04-03T02:03:41.023Z,17.86
2023-04-03T02:04:41.018Z,17.86
2023-04-03T02:05:41.084Z,17.86
2023-04-03T02:06:41.153Z,17.86
2023-04-03T02:07:41.221Z,17.86
2023-04-03T02:08:41.272Z,17.87
2023-04-03T02:09:41.337Z,17.86
2023-04-03T02:10:41.412Z,17.87
2023-04-03T02:11:41.473Z,17.86
2023-04-03T02:12:41.546Z,17.86
2023-04-03T02:13:41.610Z,17.87
2023-04-03T02:14:41.658Z,17.87
2023-04-03T02:15:41.728Z,17.86
2023-04-03T02:16:41.801Z,17.86
2023-04-03T02:17:41.867Z,17.86
2023-04-03T02:18:41.908Z,17.86
2023-04-03T02:19:41.979Z,17.86
2023-04-03T02:20:42.038Z,17.87
2023-04-03T02:21:42.084Z,17.87
2023-04-03T02:22:42.195Z,17.86
2023-04-03T02:23:42.206Z,17.87
2023-04-03T02:24:42.289Z,17.87
2023-04-03T02:25:42.342Z,17.87
2023-04-03T02:26:42.422Z,17.87
2023-04-03T02:27:42.465Z,17.87
2023-04-03T02:28:42.515Z,17.87
2023-04-03T02:29:42.926Z,17.87
2023-04-03T02:30:42.682Z,17.87
2023-04-03T02:31:42.683Z,17.87
2023-04-03T02:32:42.787Z,17.88
2023-04-03T02:33:42.823Z,17.87
2023-04-03T02:34:42.878Z,17.88
2023-04-03T02:35:42.964Z,17.88
2023-04-03T02:36:43.002Z,17.88
2023-04-03T02:37:43.075Z,17.88
2023-04-03T02:38:43.140Z,17.88
2023-04-03T02:39:43.206Z,17.88
2023-04-03T02:40:43.263Z,17.87
2023-04-03T02:41:43.335Z,17.88
2023-04-03T02:42:43.468Z,17.88
2023-04-03T02:43:43.431Z,17.89
2023-04-03T02:44:43.487Z,17.88
2023-04-03T02:45:43.564Z,17.88
2023-04-03T02:46:43.615Z,17.89
2023-04-03T02:47:43.765Z,17.88
2023-04-03T02:48:43.745Z,17.89
2023-04-03T02:49:43.807Z,17.89
2023-04-03T02:50:43.872Z,17.89
2023-04-03T02:51:43.948Z,17.89
2023-04-03T02:52:44.006Z,17.89
2023-04-03T02:53:44.083Z,17.89
2023-04-03T02:54:44.142Z,17.89
2023-04-03T02:55:44.199Z,17.89
2023-04-03T02:56:44.305Z,17.89
2023-04-03T02:57:44.344Z,17.90
2023-04-03T02:58:44.398Z,17.90
2023-04-03T02:59:44.472Z,17.90
2023-04-03T03:00:44.547Z,17.91
2023-04-03T03:01:44.671Z,17.91
2023-04-03T03:02:44.710Z,17.91
2023-04-03T03:03:44.734Z,17.91
2023-04-03T03:04:44.824Z,17.91
2023-04-03T03:05:44.857Z,17.91
2023-04-03T03:06:45.110Z,17.90
2023-04-03T03:07:44.988Z,17.91
2023-04-03T03:08:45.040Z,17.90
2023-04-03T03:09:45.102Z,17.90
2023-04-03T03:10:45.172Z,17.90
2023-04-03T03:11:45.228Z,17.90
2023-04-03T03:12:45.285Z,17.90
2023-04-03T03:13:45.336Z,17.91
2023-04-03T03:14:45.405Z,17.91
2023-04-03T03:15:45.501Z,17.91
2023-04-03T03:16:45.538Z,17.90
2023-04-03T03:17:45.634Z,17.90
2023-04-03T03:18:45.642Z,17.90
2023-04-03T03:19:45.706Z,17.91
2023-04-03T03:20:45.757Z,17.91
2023-04-03T03:21:45.820Z,17.91
2023-04-03T03:22:45.884Z,17.91
2023-04-03T03:23:45.931Z,17.90
2023-04-03T03:24:45.987Z,17.91
2023-04-03T03:25:46.037Z,17.91
2023-04-03T03:26:46.100Z,17.91
2023-04-03T03:27:46.153Z,17.91
2023-04-03T03:28:46.216Z,17.92
2023-04-03T03:29:46.268Z,17.92
2023-04-03T03:30:46.337Z,17.91
2023-04-03T03:31:46.434Z,17.91
2023-04-03T03:32:46.513Z,17.91
2023-04-03T03:33:46.568Z,17.91
2023-04-03T03:34:46.559Z,17.91
2023-04-03T03:35:46.655Z,17.91
2023-04-03T03:36:46.671Z,17.92
2023-04-03T03:37:46.726Z,17.91
2023-04-03T03:38:46.783Z,17.92
2023-04-03T03:39:46.830Z,17.91
2023-04-03T03:40:46.960Z,17.91
2023-04-03T03:41:46.952Z,17.91
2023-04-03T03:42:47.012Z,17.91
2023-04-03T03:43:47.048Z,17.91
2023-04-03T03:44:47.195Z,17.91
2023-04-03T03:45:47.161Z,17.92
2023-04-03T03:46:47.245Z,17.92
2023-04-03T03:47:47.317Z,17.92
2023-04-03T03:48:47.334Z,17.91
2023-04-03T03:49:47.382Z,17.92
2023-04-03T03:50:47.423Z,17.91
2023-04-03T03:51:47.482Z,17.91
2023-04-03T03:52:47.547Z,17.91
2023-04-03T03:53:47.599Z,17.91
2023-04-03T03:54:47.663Z,17.91
2023-04-03T03:55:47.715Z,17.91
2023-04-03T03:56:47.847Z,17.92
2023-04-03T03:57:47.894Z,17.91
2023-04-03T03:58:47.870Z,17.91
2023-04-03T03:59:47.916Z,17.92
2023-04-03T04:00:48.039Z,17.92
2023-04-03T04:01:48.061Z,17.91
2023-04-03T04:02:48.179Z,17.92
2023-04-03T04:03:48.283Z,17.91
2023-04-03T04:04:48.198Z,17.92
2023-04-03T04:05:48.258Z,17.92
2023-04-03T04:06:48.304Z,17.93
2023-04-03T04:07:48.366Z,17.93
2023-04-03T04:08:48.421Z,17.93
2023-04-03T04:09:48.474Z,17.93
2023-04-03T04:10:48.523Z,17.93
2023-04-03T04:11:48.578Z,17.92
2023-04-03T04:12:48.630Z,17.93
2023-04-03T04:13:48.775Z,17.93
2023-04-03T04:14:48.739Z,17.93
2023-04-03T04:15:48.796Z,17.93
2023-04-03T04:16:48.895Z,17.92
2023-04-03T04:17:48.972Z,17.93
2023-04-03T04:18:48.974Z,17.93
2023-04-03T04:19:49.025Z,17.94
2023-04-03T04:20:49.132Z,17.94
2023-04-03T04:21:49.147Z,17.93
2023-04-03T04:22:49.206Z,17.93
2023-04-03T04:23:49.257Z,17.93
2023-04-03T04:24:49.317Z,17.93
2023-04-03T04:25:49.382Z,17.94
2023-04-03T04:26:49.439Z,17.94
2023-04-03T04:27:49.485Z,17.94
2023-04-03T04:28:49.553Z,17.94
2023-04-03T04:29:49.602Z,17.94
2023-04-03T04:30:49.759Z,17.93
2023-04-03T04:31:49.705Z,17.94
2023-04-03T04:32:49.770Z,17.93
2023-04-03T04:33:49.815Z,17.93
2023-04-03T04:34:49.881Z,17.93
2023-04-03T04:35:50.067Z,17.93
2023-04-03T04:36:50.015Z,17.93
2023-04-03T04:37:50.026Z,17.94
2023-04-03T04:38:50.073Z,17.94
2023-04-03T04:39:50.178Z,17.94
2023-04-03T04:40:50.182Z,17.93
2023-04-03T04:41:50.237Z,17.94
2023-04-03T04:42:50.295Z,17.93
2023-04-03T04:43:50.333Z,17.93
2023-04-03T04:44:50.451Z,17.93
2023-04-03T04:45:50.576Z,17.94
2023-04-03T04:46:50.499Z,17.94
2023-04-03T04:47:50.607Z,17.94
2023-04-03T04:48:50.600Z,17.93
2023-04-03T04:49:50.648Z,17.94
2023-04-03T04:50:50.709Z,17.94
2023-04-03T04:51:52.301Z,17.94
2023-04-03T04:52:50.966Z,17.94
2023-04-03T04:53:50.855Z,17.94
2023-04-03T04:54:50.907Z,17.94
2023-04-03T04:55:50.957Z,17.94
2023-04-03T04:56:51.020Z,17.94
2023-04-03T04:57:51.168Z,17.94
2023-04-03T04:58:51.100Z,17.94
2023-04-03T04:59:51.153Z,17.94
2023-04-03T05:00:51.213Z,17.94
2023-04-03T05:01:51.268Z,17.93
2023-04-03T05:02:51.314Z,17.93
2023-04-03T05:03:51.357Z,17.93
2023-04-03T05:04:51.532Z,17.93
2023-04-03T05:05:51.454Z,17.93
2023-04-03T05:06:51.974Z,17.94
2023-04-03T05:07:51.574Z,17.93
2023-04-03T05:08:51.628Z,17.94
2023-04-03T05:09:51.695Z,17.94
2023-04-03T05:10:52.753Z,17.93
2023-04-03T05:11:51.770Z,17.93
2023-04-03T05:12:51.833Z,17.94
2023-04-03T05:13:51.880Z,17.93
2023-04-03T05:14:51.939Z,17.93
2023-04-03T05:15:52.093Z,17.95
2023-04-03T05:16:52.652Z,17.94
2023-04-03T05:17:52.172Z,17.94
2023-04-03T05:18:52.175Z,17.94
2023-04-03T05:19:52.212Z,17.95
2023-04-03T05:20:52.233Z,17.95
2023-04-03T05:21:52.280Z,17.95
2023-04-03T05:22:52.410Z,17.95
2023-04-03T05:23:52.470Z,17.94
2023-04-03T05:24:52.440Z,17.95
2023-04-03T05:25:52.497Z,17.95
2023-04-03T05:26:52.537Z,17.95
2023-04-03T05:27:52.585Z,17.95
2023-04-03T05:28:52.642Z,17.96
2023-04-03T05:29:52.697Z,17.96
2023-04-03T05:30:52.745Z,17.98
2023-04-03T05:31:52.862Z,17.98
2023-04-03T05:32:52.883Z,17.98
2023-04-03T05:33:52.984Z,17.98
2023-04-03T05:34:52.930Z,17.97
2023-04-03T05:35:53.089Z,17.98
2023-04-03T05:36:53.041Z,17.98
2023-04-03T05:37:53.079Z,17.98
2023-04-03T05:38:53.110Z,17.98
2023-04-03T05:39:53.162Z,17.97
2023-04-03T05:40:53.230Z,17.98
2023-04-03T05:41:53.985Z,17.98
2023-04-03T05:42:53.487Z,17.98
2023-04-03T05:43:53.402Z,17.98
2023-04-03T05:44:53.385Z,17.99
2023-04-03T05:45:53.459Z,17.99
2023-04-03T05:46:53.481Z,17.99
2023-04-03T05:47:53.583Z,17.99
2023-04-03T05:48:53.580Z,17.99
2023-04-03T05:49:53.637Z,18.00
2023-04-03T05:50:55.733Z,17.99
2023-04-03T05:51:53.712Z,17.99
2023-04-03T05:52:53.750Z,18.00
2023-04-03T05:53:53.843Z,17.99
2023-04-03T05:54:53.820Z,17.99
2023-04-03T05:55:53.847Z,17.99
2023-04-03T05:56:53.934Z,18.00
2023-04-03T05:57:53.913Z,18.00
2023-04-03T05:58:53.958Z,18.01
2023-04-03T05:59:53.984Z,18.01
2023-04-03T06:00:54.022Z,18.00
2023-04-03T06:01:54.070Z,18.00
2023-04-03T06:02:54.165Z,18.00
2023-04-03T06:03:54.197Z,18.01
2023-04-03T06:04:54.335Z,18.00
2023-04-03T06:05:54.264Z,18.00
2023-04-03T06:06:54.233Z,18.01
2023-04-03T06:07:54.276Z,18.00
2023-04-03T06:08:54.302Z,18.00
2023-04-03T06:09:54.336Z,18.00
2023-04-03T06:10:54.389Z,18.01
2023-04-03T06:11:54.421Z,18.01
2023-04-03T06:12:54.458Z,18.02
2023-04-03T06:13:54.491Z,18.02
2023-04-03T06:14:54.535Z,18.02
2023-04-03T06:15:54.562Z,18.02
2023-04-03T06:16:55.262Z,18.02
2023-04-03T06:17:54.707Z,18.02
2023-04-03T06:18:54.674Z,18.03
2023-04-03T06:19:54.709Z,18.03
2023-04-03T06:20:54.749Z,18.03
2023-04-03T06:21:54.788Z,18.03
2023-04-03T06:22:54.820Z,18.03
2023-04-03T06:23:54.848Z,18.04
2023-04-03T06:24:54.895Z,18.03
2023-04-03T06:25:54.918Z,18.03
2023-04-03T06:26:54.966Z,18.04
2023-04-03T06:27:54.991Z,18.05
2023-04-03T06:28:55.022Z,18.04
2023-04-03T06:29:55.058Z,18.05
2023-04-03T06:30:55.128Z,18.05
2023-04-03T06:31:55.326Z,18.05
2023-04-03T06:32:55.222Z,18.05
2023-04-03T06:33:55.213Z,18.05
2023-04-03T06:34:55.247Z,18.05
2023-04-03T06:35:55.336Z,18.05
2023-04-03T06:36:55.311Z,18.05
2023-04-03T06:37:55.384Z,18.06
2023-04-03T06:38:55.386Z,18.06
2023-04-03T06:39:55.415Z,18.06
2023-04-03T06:40:55.459Z,18.06
2023-04-03T06:41:55.491Z,18.06
2023-04-03T06:42:55.537Z,18.06
2023-04-03T06:43:55.573Z,18.07
2023-04-03T06:44:55.601Z,18.07
2023-04-03T06:45:55.798Z,18.07
2023-04-03T06:46:55.679Z,18.07
2023-04-03T06:47:55.758Z,18.08
2023-04-03T06:48:55.764Z,18.08
2023-04-03T06:49:55.807Z,18.08
2023-04-03T06:50:55.914Z,18.08
2023-04-03T06:51:55.896Z,18.09
2023-04-03T06:52:55.898Z,18.08
2023-04-03T06:53:55.923Z,18.08
2023-04-03T06:54:55.955Z,18.09
2023-04-03T06:55:56.005Z,18.09
2023-04-03T06:56:56.061Z,18.09
2023-04-03T06:57:56.086Z,18.09
2023-04-03T06:58:56.115Z,18.09
2023-04-03T06:59:56.156Z,18.09
2023-04-03T07:00:56.177Z,18.09
2023-04-03T07:01:56.239Z,18.09
2023-04-03T07:02:56.300Z,18.09
2023-04-03T07:03:56.291Z,18.09
2023-04-03T07:04:56.440Z,18.09
2023-04-03T07:05:56.377Z,18.10
2023-04-03T07:06:56.396Z,18.10
2023-04-03T07:07:56.435Z,18.11
2023-04-03T07:08:56.490Z,18.11
2023-04-03T07:09:56.507Z,18.12
2023-04-03T07:10:56.551Z,18.12
2023-04-03T07:11:56.584Z,18.12
2023-04-03T07:12:57.514Z,18.12
2023-04-03T07:13:56.666Z,18.13
2023-04-03T07:14:56.712Z,18.13
2023-04-03T07:15:56.777Z,18.13
2023-04-03T07:16:56.779Z,18.13
2023-04-03T07:17:57.043Z,18.13
2023-04-03T07:18:56.841Z,18.14
2023-04-03T07:19:56.879Z,18.14
2023-04-03T07:20:56.920Z,18.14
2023-04-03T07:21:56.944Z,18.14
2023-04-03T07:22:57.040Z,18.15
2023-04-03T07:23:57.024Z,18.15
2023-04-03T07:24:57.082Z,18.15
2023-04-03T07:25:57.161Z,18.16
2023-04-03T07:26:57.124Z,18.16
2023-04-03T07:27:57.156Z,18.16
2023-04-03T07:28:57.194Z,18.17
2023-04-03T07:29:57.226Z,18.17
2023-04-03T07:30:57.262Z,18.17
2023-04-03T07:31:58.096Z,18.18
2023-04-03T07:32:57.608Z,18.18
2023-04-03T07:33:57.398Z,18.18
2023-04-03T07:34:57.440Z,18.19
2023-04-03T07:35:57.541Z,18.19
2023-04-03T07:36:57.480Z,18.20
2023-04-03T07:37:57.533Z,18.20
2023-04-03T07:38:57.592Z,18.21
2023-04-03T07:39:57.616Z,18.21
2023-04-03T07:40:57.631Z,18.21
2023-04-03T07:41:57.722Z,18.21
2023-04-03T07:42:57.737Z,18.22
2023-04-03T07:43:57.781Z,18.22
2023-04-03T07:44:57.783Z,18.23
2023-04-03T07:45:57.865Z,18.22
2023-04-03T07:46:57.848Z,18.23
2023-04-03T07:47:57.908Z,18.23
2023-04-03T07:48:58.694Z,18.24
2023-04-03T07:49:57.954Z,18.23
2023-04-03T07:50:57.995Z,18.24
2023-04-03T07:51:58.025Z,18.24
2023-04-03T07:52:58.054Z,18.25
2023-04-03T07:53:58.099Z,18.25
2023-04-03T07:54:58.153Z,18.24
2023-04-03T07:55:58.193Z,18.26
2023-04-03T07:56:58.277Z,18.25
2023-04-03T07:57:58.324Z,18.26
2023-04-03T07:58:58.297Z,18.26
2023-04-03T07:59:58.417Z,18.26
2023-04-03T08:00:58.369Z,18.27
2023-04-03T08:01:58.410Z,18.27
2023-04-03T08:02:58.539Z,18.27
2023-04-03T08:03:58.565Z,18.27
2023-04-03T08:04:58.633Z,18.28
2023-04-03T08:05:58.553Z,18.28
2023-04-03T08:06:58.636Z,18.28
2023-04-03T08:07:58.630Z,18.29
2023-04-03T08:08:58.662Z,18.28
2023-04-03T08:09:58.716Z,18.29
2023-04-03T08:10:58.732Z,18.29
2023-04-03T08:11:58.773Z,18.29
2023-04-03T08:12:58.818Z,18.30
2023-04-03T08:13:58.979Z,18.30
2023-04-03T08:14:58.864Z,18.30
2023-04-03T08:15:58.896Z,18.30
2023-04-03T08:16:58.974Z,18.30
2023-04-03T08:17:59.016Z,18.30
2023-04-03T08:18:58.997Z,18.31
2023-04-03T08:19:59.054Z,18.31
2023-04-03T08:20:59.069Z,18.33
2023-04-03T08:21:59.114Z,18.33
2023-04-03T08:22:59.142Z,18.34
2023-04-03T08:23:59.174Z,18.35
2023-04-03T08:24:59.772Z,18.35
2023-04-03T08:25:59.251Z,18.36
2023-04-03T08:26:59.280Z,18.38
2023-04-03T08:27:59.311Z,18.38
2023-04-03T08:28:59.335Z,18.38
2023-04-03T08:29:59.374Z,18.38
2023-04-03T08:30:59.422Z,18.38
2023-04-03T08:31:59.437Z,18.38
2023-04-03T08:32:59.590Z,18.38
2023-04-03T08:33:59.504Z,18.38
2023-04-03T08:34:59.539Z,18.39
2023-04-03T08:35:59.641Z,18.38
2023-04-03T08:36:59.602Z,18.38
2023-04-03T08:37:59.704Z,18.39
2023-04-03T08:38:59.670Z,18.39
2023-04-03T08:39:59.713Z,18.39
2023-04-03T08:40:59.737Z,18.39
2023-04-03T08:41:59.804Z,18.40
2023-04-03T08:42:59.821Z,18.41
2023-04-03T08:43:59.835Z,18.42
2023-04-03T08:44:59.869Z,18.42
2023-04-03T08:46:00.011Z,18.42
2023-04-03T08:46:59.935Z,18.42
2023-04-03T08:48:00.024Z,18.42
2023-04-03T08:49:00.119Z,18.42
2023-04-03T08:50:00.038Z,18.43
2023-04-03T08:51:03.278Z,18.42
2023-04-03T08:52:00.125Z,18.43
2023-04-03T08:53:00.198Z,18.43
2023-04-03T08:54:00.202Z,18.43
2023-04-03T08:55:00.209Z,18.44
2023-04-03T08:56:00.216Z,18.45
2023-04-03T08:57:00.308Z,18.45
2023-04-03T08:58:00.274Z,18.46
2023-04-03T08:59:00.325Z,18.46
2023-04-03T09:00:00.338Z,18.46
2023-04-03T09:01:01.056Z,18.46
2023-04-03T09:02:00.530Z,18.46
2023-04-03T09:03:00.507Z,18.46
2023-04-03T09:04:00.476Z,18.47
2023-04-03T09:05:00.472Z,18.47
2023-04-03T09:06:00.490Z,18.47
2023-04-03T09:07:00.522Z,18.47
2023-04-03T09:08:00.561Z,18.47
2023-04-03T09:09:00.574Z,18.46
2023-04-03T09:10:00.618Z,18.46
2023-04-03T09:11:00.654Z,18.46
2023-04-03T09:12:00.665Z,18.46
2023-04-03T09:13:00.701Z,18.47
2023-04-03T09:14:00.737Z,18.47
2023-04-03T09:15:01.131Z,18.47
2023-04-03T09:16:00.814Z,18.46
2023-04-03T09:17:00.826Z,18.46
2023-04-03T09:18:01.009Z,18.47
2023-04-03T09:19:00.886Z,18.46
2023-04-03T09:20:00.939Z,18.47
2023-04-03T09:21:00.958Z,18.47
2023-04-03T09:22:00.996Z,18.46
2023-04-03T09:23:01.035Z,18.45
2023-04-03T09:24:01.067Z,18.45
2023-04-03T09:25:01.095Z,18.45
2023-04-03T09:26:01.125Z,18.46
2023-04-03T09:27:01.162Z,18.46
2023-04-03T09:28:01.175Z,18.45
2023-04-03T09:29:01.211Z,18.46
2023-04-03T09:30:01.237Z,18.46
2023-04-03T09:31:01.287Z,18.46
2023-04-03T09:32:01.338Z,18.46
2023-04-03T09:33:01.391Z,18.46
2023-04-03T09:34:01.451Z,18.47
2023-04-03T09:35:03.941Z,18.46
2023-04-03T09:36:02.465Z,18.46
2023-04-03T09:37:01.452Z,18.47
2023-04-03T09:38:01.491Z,18.47
2023-04-03T09:39:01.512Z,18.47
2023-04-03T09:40:01.614Z,18.47
2023-04-03T09:41:01.580Z,18.48
2023-04-03T09:42:01.609Z,18.48
2023-04-03T09:43:01.986Z,18.49
2023-04-03T09:44:01.680Z,18.50
2023-04-03T09:45:01.788Z,18.50
2023-04-03T09:46:01.886Z,18.51
2023-04-03T09:47:02.090Z,18.51
2023-04-03T09:48:02.105Z,18.52
2023-04-03T09:49:08.790Z,18.52
2023-04-03T09:50:03.254Z,18.52
2023-04-03T09:51:02.188Z,18.52
2023-04-03T09:52:02.228Z,18.53
2023-04-03T09:53:02.241Z,18.53
2023-04-03T09:54:02.262Z,18.54
2023-04-03T09:55:02.295Z,18.54
2023-04-03T09:56:02.319Z,18.54
2023-04-03T09:57:02.430Z,18.55
2023-04-03T09:58:02.477Z,18.54
2023-04-03T09:59:02.560Z,18.54
2023-04-03T10:00:02.724Z,18.52
2023-04-03T10:01:02.778Z,18.52
2023-04-03T10:02:02.818Z,18.53
2023-04-03T10:03:02.968Z,18.54
2023-04-03T10:04:03.113Z,18.54
2023-04-03T10:06:03.203Z,18.56
2023-04-03T10:07:03.158Z,18.56
2023-04-03T10:08:04.092Z,18.58
2023-04-03T10:09:03.187Z,18.58
2023-04-03T10:10:03.219Z,18.58
2023-04-03T10:11:03.237Z,18.59
2023-04-03T10:12:03.250Z,18.60
2023-04-03T10:13:03.284Z,18.61
2023-04-03T10:14:03.317Z,18.62
2023-04-03T10:15:03.336Z,18.63
2023-04-03T10:16:03.356Z,18.63
2023-04-03T10:17:03.409Z,18.64
2023-04-03T10:18:14.346Z,18.64
2023-04-03T10:19:04.415Z,18.65
2023-04-03T10:20:04.088Z,18.65
2023-04-03T10:21:03.637Z,18.66
2023-04-03T10:22:03.571Z,18.67
2023-04-03T10:23:03.540Z,18.67
2023-04-03T10:24:03.547Z,18.67
2023-04-03T10:25:03.579Z,18.68
2023-04-03T10:26:03.595Z,18.68
2023-04-03T10:27:03.614Z,18.69
2023-04-03T10:28:03.646Z,18.70
2023-04-03T10:29:03.732Z,18.70
2023-04-03T10:30:03.826Z,18.71
2023-04-03T10:31:03.917Z,18.72
2023-04-03T10:32:03.970Z,18.73
2023-04-03T10:33:04.129Z,18.73
2023-04-03T10:34:04.129Z,18.74
2023-04-03T10:35:05.292Z,18.75
2023-04-03T10:36:04.297Z,18.76
2023-04-03T10:37:04.337Z,18.77
2023-04-03T10:38:04.519Z,18.78
2023-04-03T10:39:04.498Z,18.79
2023-04-03T10:40:04.566Z,18.79
2023-04-03T10:41:04.653Z,18.80
2023-04-03T10:43:04.831Z,18.82
2023-04-03T10:44:04.743Z,18.84
2023-04-03T10:45:04.763Z,18.84
2023-04-03T10:46:04.894Z,18.85
2023-04-03T10:47:04.795Z,18.87
2023-04-03T10:48:04.945Z,18.87
2023-04-03T10:49:04.856Z,18.86
2023-04-03T10:50:04.888Z,18.85
2023-04-03T10:51:04.870Z,18.85
2023-04-03T10:52:05.591Z,18.86
2023-04-03T10:53:04.929Z,18.87
2023-04-03T10:54:05.050Z,18.89
2023-04-03T10:55:04.976Z,18.91
2023-04-03T10:56:05.015Z,18.92
2023-04-03T10:57:12.464Z,18.91
2023-04-03T10:58:06.035Z,18.91
2023-04-03T10:59:05.073Z,18.90
2023-04-03T11:00:05.096Z,18.89
2023-04-03T11:01:05.147Z,18.91
2023-04-03T11:02:05.180Z,18.91
2023-04-03T11:03:05.371Z,18.90
2023-04-03T11:04:05.320Z,18.89
2023-04-03T11:05:05.179Z,18.88
2023-04-03T11:06:05.196Z,18.87
2023-04-03T11:07:05.217Z,18.87
2023-04-03T11:08:05.239Z,18.86
2023-04-03T11:09:05.262Z,18.89
2023-04-03T11:10:05.364Z,18.90
2023-04-03T11:11:05.322Z,18.89
2023-04-03T11:12:05.370Z,18.89
2023-04-03T11:13:05.435Z,18.88
2023-04-03T11:14:05.611Z,18.90
2023-04-03T11:15:05.561Z,18.92
2023-04-03T11:16:05.652Z,18.93
2023-04-03T11:17:05.694Z,18.95
2023-04-03T11:18:05.791Z,18.98
2023-04-03T11:19:05.851Z,19.00
2023-04-03T11:20:05.854Z,19.02
2023-04-03T11:21:05.913Z,19.03
2023-04-03T11:22:05.957Z,19.03
2023-04-03T11:23:06.077Z,19.01
2023-04-03T11:24:06.060Z,19.00
2023-04-03T11:25:06.168Z,18.98
2023-04-03T11:26:06.254Z,18.96
2023-04-03T11:27:06.288Z,18.95
2023-04-03T11:28:06.253Z,18.95
2023-04-03T11:29:06.338Z,18.99
2023-04-03T11:30:06.359Z,19.03
2023-04-03T11:31:06.424Z,19.05
2023-04-03T11:32:06.439Z,19.04
2023-04-03T11:33:06.531Z,19.07
2023-04-03T11:34:06.526Z,19.09
2023-04-03T11:35:06.554Z,19.12
2023-04-03T11:36:18.836Z,19.13
2023-04-03T11:37:07.602Z,19.14
2023-04-03T11:38:06.626Z,19.17
2023-04-03T11:39:06.700Z,19.20
2023-04-03T11:40:06.643Z,19.22
2023-04-03T11:41:06.655Z,19.22
2023-04-03T11:42:13.084Z,19.25
2023-04-03T11:43:07.690Z,19.27
2023-04-03T11:44:06.701Z,19.29
2023-04-03T11:45:06.720Z,19.31
2023-04-03T11:46:06.736Z,19.34
2023-04-03T11:47:06.791Z,19.36
2023-04-03T11:48:21.007Z,19.36
2023-04-03T11:49:07.777Z,19.35
2023-04-03T11:50:06.793Z,19.37
2023-04-03T11:51:06.798Z,19.40
2023-04-03T11:52:06.805Z,19.36
2023-04-03T11:53:06.826Z,19.33
2023-04-03T11:54:06.843Z,19.31
2023-04-03T11:55:06.839Z,19.35
2023-04-03T11:56:06.859Z,19.38
2023-04-03T11:57:06.887Z,19.41
2023-04-03T11:58:06.972Z,19.44
2023-04-03T11:59:06.882Z,19.44
2023-04-03T12:00:06.952Z,19.44
2023-04-03T12:01:07.053Z,19.40
2023-04-03T12:02:07.137Z,19.37
2023-04-03T12:03:07.348Z,19.36
2023-04-03T12:04:07.351Z,19.42
2023-04-03T12:05:07.355Z,19.47
2023-04-03T12:06:07.434Z,19.50
2023-04-03T12:07:07.554Z,19.54
2023-04-03T12:08:07.587Z,19.55
2023-04-03T12:09:07.666Z,19.52
2023-04-03T12:10:08.660Z,19.50
2023-04-03T12:11:08.125Z,19.50
2023-04-03T12:12:07.884Z,19.46
2023-04-03T12:13:07.965Z,19.45
2023-04-03T12:14:08.158Z,19.43
2023-04-03T12:15:08.134Z,19.42
2023-04-03T12:16:08.215Z,19.40
2023-04-03T12:17:08.401Z,19.39
2023-04-03T12:18:08.412Z,19.39
2023-04-03T12:19:08.444Z,19.40
2023-04-03T12:20:08.514Z,19.40
2023-04-03T12:21:08.643Z,19.42
2023-04-03T12:22:08.657Z,19.45
2023-04-03T12:23:08.787Z,19.48
2023-04-03T12:24:08.788Z,19.50
2023-04-03T12:25:08.859Z,19.53
2023-04-03T12:26:08.925Z,19.56
2023-04-03T12:27:09.020Z,19.59
2023-04-03T12:28:09.093Z,19.55
2023-04-03T12:29:09.180Z,19.52
2023-04-03T12:30:10.271Z,19.51
2023-04-03T12:31:09.445Z,19.48
2023-04-03T12:32:09.461Z,19.46
2023-04-03T12:33:13.095Z,19.45
2023-04-03T12:34:09.488Z,19.50
2023-04-03T12:35:09.553Z,19.57
2023-04-03T12:36:09.577Z,19.63
2023-04-03T12:37:09.528Z,19.67
2023-04-03T12:38:09.538Z,19.62
2023-04-03T12:39:09.554Z,19.58
2023-04-03T12:40:09.628Z,19.57
2023-04-03T12:41:09.569Z,19.64
2023-04-03T12:42:09.631Z,19.69
2023-04-03T12:43:09.593Z,19.66
2023-04-03T12:44:09.610Z,19.63
2023-04-03T12:45:09.636Z,19.58
2023-04-03T12:46:09.791Z,19.55
2023-04-03T12:47:09.683Z,19.52
2023-04-03T12:48:09.693Z,19.60
2023-04-03T12:49:09.678Z,19.68
2023-04-03T12:50:09.728Z,19.72
2023-04-03T12:51:09.707Z,19.75
2023-04-03T12:52:09.710Z,19.80
2023-04-03T12:53:09.778Z,19.84
2023-04-03T12:54:09.832Z,19.89
2023-04-03T12:55:09.895Z,19.92